Time;durP1;ratioP1;P1;durP2;ratioP2;P2;SDS_P1;SDS_P2;PMS_P1;PMS_P2;Temp;Humidity;BMP_temperature;BMP_pressure;BME280_temperature;BME280_humidity;BME280_pressure;Samples;Min_cycle;Max_cycle;Signal;HPM_P1;HPM_P2
2022/06/19 00:02:15;;;;;;;20.73;3.38;;;;;;;;;;5057114;27;90635;-76
2022/06/19 00:04:43;;;;;;;12.13;2.88;;;;;;;;;;5057307;27;88700;-76
2022/06/19 00:07:11;;;;;;;14.18;3.17;;;;;;;;;;5053068;27;89544;-75
2022/06/19 00:09:37;;;;;;;20.70;5.47;;;;;;;;;;5041855;27;88678;-75
2022/06/19 00:12:04;;;;;;;15.82;3.45;;;;;;;;;;5060229;27;88073;-75
2022/06/19 00:14:33;;;;;;;15.05;2.42;;;;;;;;;;5058285;27;89652;-75
2022/06/19 00:17:00;;;;;;;12.57;2.97;;;;;;;;;;5058254;27;89281;-75
2022/06/19 00:19:27;;;;;;;23.80;4.38;;;;;;;;;;5044939;27;89459;-75
2022/06/19 00:21:53;;;;;;;15.40;3.25;;;;;;;;;;5036834;28;89077;-75
2022/06/19 00:24:20;;;;;;;18.20;3.50;;;;;;;;;;5044760;27;89508;-75
2022/06/19 00:26:46;;;;;;;19.52;3.22;;;;;;;;;;5036034;28;89217;-75
2022/06/19 00:29:12;;;;;;;15.30;4.50;;;;;;;;;;5019663;28;91340;-75
2022/06/19 00:31:39;;;;;;;13.57;3.03;;;;;;;;;;5036452;28;88018;-75
2022/06/19 00:34:05;;;;;;;11.85;3.22;;;;;;;;;;5038685;28;89064;-75
2022/06/19 00:36:32;;;;;;;18.90;4.70;;;;;;;;;;5049825;27;88041;-75
2022/06/19 00:38:58;;;;;;;10.40;2.80;;;;;;;;;;5056508;27;88663;-75
2022/06/19 00:41:30;;;;;;;15.15;3.03;;;;;;;;;;5037462;27;89908;-75
2022/06/19 00:44:04;;;;;;;22.42;3.58;;;;;;;;;;5036769;28;87689;-74
2022/06/19 00:46:42;;;;;;;11.95;2.50;;;;;;;;;;5037169;28;88857;-75
2022/06/19 00:49:10;;;;;;;17.98;3.50;;;;;;;;;;5036076;28;89627;-75
2022/06/19 00:51:37;;;;;;;12.30;3.35;;;;;;;;;;5036533;28;88967;-75
2022/06/19 00:54:05;;;;;;;15.25;3.17;;;;;;;;;;5054392;27;90305;-75
2022/06/19 00:56:31;;;;;;;20.13;3.30;;;;;;;;;;5059440;27;89255;-75
2022/06/19 00:58:58;;;;;;;11.40;3.13;;;;;;;;;;5056341;27;87996;-73
2022/06/19 01:01:27;;;;;;;13.90;2.70;;;;;;;;;;5056686;27;89629;-74
2022/06/19 01:03:57;;;;;;;8.63;2.55;;;;;;;;;;5057174;27;88749;-74
2022/06/19 01:06:25;;;;;;;14.70;2.80;;;;;;;;;;5057421;27;89587;-74
2022/06/19 01:08:52;;;;;;;14.95;3.10;;;;;;;;;;5055794;27;88440;-74
2022/06/19 01:11:19;;;;;;;14.93;2.20;;;;;;;;;;5037546;27;89817;-74
2022/06/19 01:13:46;;;;;;;10.48;2.75;;;;;;;;;;5036407;28;88923;-75
2022/06/19 01:16:13;;;;;;;6.38;2.13;;;;;;;;;;5035734;28;90515;-75
2022/06/19 01:18:40;;;;;;;13.32;2.75;;;;;;;;;;5039688;28;88011;-75
2022/06/19 01:21:13;;;;;;;10.05;3.13;;;;;;;;;;5051350;27;90168;-75
2022/06/19 01:23:45;;;;;;;12.15;2.70;;;;;;;;;;5051280;27;89046;-75
2022/06/19 01:26:11;;;;;;;;;;;;;;;;;;5038486;27;89021;-74
2022/06/19 01:28:54;;;;;;;16.75;3.30;;;;;;;;;;5057177;27;119172;-74
2022/06/19 01:31:28;;;;;;;9.20;1.92;;;;;;;;;;5056414;27;88060;-74
2022/06/19 01:36:55;;;;;;;6.60;2.53;;;;;;;;;;5056245;27;90113;-74
2022/06/19 01:39:22;;;;;;;6.25;2.38;;;;;;;;;;5052190;27;88739;-75
2022/06/19 01:41:49;;;;;;;5.05;1.85;;;;;;;;;;5038666;28;89578;-75
2022/06/19 01:44:15;;;;;;;5.75;2.20;;;;;;;;;;5039688;27;88643;-75
2022/06/19 01:46:42;;;;;;;5.22;2.53;;;;;;;;;;5055771;27;88785;-74
2022/06/19 01:49:08;;;;;;;8.95;1.77;;;;;;;;;;5049116;27;89557;-75
2022/06/19 01:51:35;;;;;;;3.80;2.00;;;;;;;;;;5035832;28;88862;-75
2022/06/19 01:54:13;;;;;;;8.73;1.77;;;;;;;;;;5036608;28;89631;-75
2022/06/19 01:56:40;;;;;;;4.55;1.42;;;;;;;;;;5036602;28;88720;-75
2022/06/19 01:59:09;;;;;;;6.38;2.50;;;;;;;;;;5035956;28;88009;-75
2022/06/19 02:01:36;;;;;;;6.28;1.25;;;;;;;;;;5042147;27;89414;-75
2022/06/19 02:04:04;;;;;;;7.57;1.70;;;;;;;;;;5043064;28;88678;-74
2022/06/19 02:06:34;;;;;;;3.22;1.60;;;;;;;;;;5038537;28;88756;-74
2022/06/19 02:09:02;;;;;;;5.53;1.50;;;;;;;;;;5039349;27;89712;-75
2022/06/19 02:11:29;;;;;;;10.20;1.83;;;;;;;;;;5039349;28;88901;-75
2022/06/19 02:13:58;;;;;;;4.00;1.13;;;;;;;;;;5039734;28;88579;-74
2022/06/19 02:16:25;;;;;;;6.72;1.48;;;;;;;;;;5039772;28;90054;-75
2022/06/19 02:18:52;;;;;;;3.38;1.48;;;;;;;;;;5039135;27;88376;-74
2022/06/19 02:21:21;;;;;;;8.90;2.67;;;;;;;;;;5039798;28;89453;-74
2022/06/19 02:23:49;;;;;;;10.30;1.90;;;;;;;;;;5042282;28;88485;-74
2022/06/19 02:26:15;;;;;;;5.65;1.65;;;;;;;;;;5039043;28;88651;-74
2022/06/19 02:28:43;;;;;;;6.90;1.90;;;;;;;;;;5038971;28;88943;-74
2022/06/19 02:31:10;;;;;;;8.23;1.77;;;;;;;;;;5039493;27;89920;-74
2022/06/19 02:33:44;;;;;;;4.93;1.63;;;;;;;;;;5038652;28;90284;-74
2022/06/19 02:36:30;;;;;;;9.15;2.10;;;;;;;;;;5058232;27;89683;-75
2022/06/19 02:38:59;;;;;;;13.60;1.90;;;;;;;;;;5042157;27;88814;-75
2022/06/19 02:41:30;;;;;;;7.50;1.83;;;;;;;;;;5038551;28;89616;-75
2022/06/19 02:43:59;;;;;;;10.13;2.00;;;;;;;;;;5039027;28;89762;-75
2022/06/19 02:46:25;;;;;;;8.00;2.00;;;;;;;;;;5041843;28;88738;-75
2022/06/19 02:48:51;;;;;;;4.65;1.50;;;;;;;;;;5040594;27;89045;-76
2022/06/19 02:51:18;;;;;;;9.98;2.15;;;;;;;;;;5042085;27;88087;-75
2022/06/19 02:53:44;;;;;;;14.55;2.15;;;;;;;;;;5057438;27;88101;-75
2022/06/19 02:56:10;;;;;;;6.20;1.48;;;;;;;;;;5058828;27;90747;-75
2022/06/19 02:58:37;;;;;;;6.22;1.95;;;;;;;;;;5059423;27;88775;-75
2022/06/19 03:01:03;;;;;;;8.10;2.15;;;;;;;;;;5044302;27;89836;-75
2022/06/19 03:03:38;;;;;;;6.28;2.35;;;;;;;;;;5038902;27;89678;-75
2022/06/19 03:06:05;;;;;;;10.27;2.30;;;;;;;;;;5039223;27;88582;-75
2022/06/19 03:08:32;;;;;;;4.78;1.73;;;;;;;;;;5040721;27;88568;-74
2022/06/19 03:10:58;;;;;;;6.70;1.80;;;;;;;;;;5037573;27;88157;-75
2022/06/19 03:13:25;;;;;;;10.48;2.53;;;;;;;;;;5038681;27;89607;-74
2022/06/19 03:16:02;;;;;;;13.48;3.13;;;;;;;;;;5036589;27;88955;-73
2022/06/19 03:18:30;;;;;;;21.67;3.00;;;;;;;;;;5038097;27;88624;-74
2022/06/19 03:20:56;;;;;;;12.65;2.58;;;;;;;;;;5053447;27;88801;-74
2022/06/19 03:23:22;;;;;;;13.70;2.53;;;;;;;;;;5037748;27;89612;-74
2022/06/19 03:25:49;;;;;;;16.48;2.58;;;;;;;;;;5037516;27;88040;-74
2022/06/19 03:28:15;;;;;;;19.38;3.85;;;;;;;;;;5037500;27;88621;-74
2022/06/19 03:30:41;;;;;;;20.73;2.97;;;;;;;;;;5040021;27;89834;-74
2022/06/19 03:33:08;;;;;;;9.30;2.70;;;;;;;;;;5037883;27;89738;-74
2022/06/19 03:35:34;;;;;;;13.25;2.60;;;;;;;;;;5038268;27;89939;-74
2022/06/19 03:38:01;;;;;;;12.98;2.58;;;;;;;;;;5046371;27;88019;-73
2022/06/19 03:40:27;;;;;;;15.68;2.63;;;;;;;;;;5038526;27;88209;-75
2022/06/19 03:42:53;;;;;;;12.88;3.35;;;;;;;;;;5038940;27;89746;-74
2022/06/19 03:45:20;;;;;;;7.97;2.58;;;;;;;;;;5053543;27;89110;-75
2022/06/19 03:47:46;;;;;;;12.18;2.83;;;;;;;;;;5037247;27;89263;-75
2022/06/19 03:50:16;;;;;;;13.63;4.15;;;;;;;;;;5036449;27;89175;-74
2022/06/19 03:52:43;;;;;;;15.00;2.13;;;;;;;;;;5052274;27;89955;-75
2022/06/19 03:55:09;;;;;;;14.02;3.05;;;;;;;;;;5050837;27;89806;-75
2022/06/19 03:57:35;;;;;;;7.22;1.95;;;;;;;;;;5052785;27;88269;-75
2022/06/19 04:00:02;;;;;;;7.90;3.08;;;;;;;;;;5042872;27;89533;-75
2022/06/19 04:02:37;;;;;;;13.15;2.35;;;;;;;;;;5038076;27;87768;-75
2022/06/19 04:05:03;;;;;;;6.78;2.08;;;;;;;;;;5037001;27;88614;-75
2022/06/19 04:07:30;;;;;;;10.93;2.25;;;;;;;;;;5036941;27;90425;-75
2022/06/19 04:10:00;;;;;;;6.75;2.45;;;;;;;;;;5036351;27;89752;-75
2022/06/19 04:12:27;;;;;;;34.10;2.70;;;;;;;;;;5036543;27;88019;-75
2022/06/19 04:14:53;;;;;;;9.50;2.20;;;;;;;;;;5048229;27;89548;-75
2022/06/19 04:17:19;;;;;;;10.95;2.50;;;;;;;;;;5049032;27;88756;-75
2022/06/19 04:19:46;;;;;;;8.20;2.50;;;;;;;;;;5044374;27;88505;-75
2022/06/19 04:22:13;;;;;;;10.32;2.65;;;;;;;;;;5037192;27;88758;-75
2022/06/19 04:24:39;;;;;;;5.95;1.80;;;;;;;;;;5036407;27;88946;-76
2022/06/19 04:27:06;;;;;;;11.20;3.13;;;;;;;;;;5037504;27;88533;-76
2022/06/19 04:29:32;;;;;;;13.00;2.10;;;;;;;;;;5037410;27;89714;-75
2022/06/19 04:31:58;;;;;;;6.93;2.20;;;;;;;;;;5036608;27;88788;-76
2022/06/19 04:34:25;;;;;;;6.60;2.15;;;;;;;;;;5040226;27;88849;-77
2022/06/19 04:36:51;;;;;;;15.23;2.60;;;;;;;;;;5046551;27;88039;-78
2022/06/19 04:39:18;;;;;;;10.35;2.17;;;;;;;;;;5049594;27;88812;-76
2022/06/19 04:41:44;;;;;;;7.18;1.90;;;;;;;;;;5036882;27;89570;-77
2022/06/19 04:44:12;;;;;;;8.05;3.10;;;;;;;;;;5035821;27;88112;-77
2022/06/19 04:46:39;;;;;;;13.13;2.75;;;;;;;;;;5035767;27;88629;-75
2022/06/19 04:49:06;;;;;;;7.07;1.92;;;;;;;;;;5053818;27;89626;-76
2022/06/19 04:51:37;;;;;;;4.15;1.75;;;;;;;;;;5038380;27;87874;-75
2022/06/19 04:54:04;;;;;;;5.95;1.60;;;;;;;;;;5035533;27;88080;-76
2022/06/19 04:56:30;;;;;;;5.05;2.10;;;;;;;;;;5053416;27;89380;-75
2022/06/19 04:58:57;;;;;;;13.07;2.28;;;;;;;;;;5046180;27;89529;-75
2022/06/19 05:01:27;;;;;;;8.32;1.90;;;;;;;;;;5036336;27;89757;-75
2022/06/19 05:03:55;;;;;;;7.45;1.85;;;;;;;;;;5036138;27;88061;-75
2022/06/19 05:06:21;;;;;;;12.23;2.88;;;;;;;;;;5037065;27;89984;-75
2022/06/19 05:08:48;;;;;;;12.55;2.95;;;;;;;;;;5050595;27;89269;-75
2022/06/19 05:11:14;;;;;;;7.40;2.15;;;;;;;;;;5036961;27;88673;-75
2022/06/19 05:13:41;;;;;;;11.55;2.28;;;;;;;;;;5036419;27;89586;-74
2022/06/19 05:16:10;;;;;;;11.30;2.75;;;;;;;;;;5044062;27;89158;-74
2022/06/19 05:18:37;;;;;;;12.20;2.97;;;;;;;;;;5039431;27;89761;-75
2022/06/19 05:21:04;;;;;;;16.13;2.75;;;;;;;;;;5036069;27;88999;-75
2022/06/19 05:23:34;;;;;;;18.40;2.80;;;;;;;;;;5035390;27;88852;-75
2022/06/19 05:26:03;;;;;;;11.65;2.40;;;;;;;;;;5043905;27;89733;-75
2022/06/19 05:28:30;;;;;;;12.93;2.85;;;;;;;;;;5035613;27;90444;-75
2022/06/19 05:30:57;;;;;;;12.88;2.40;;;;;;;;;;5036042;27;88915;-75
2022/06/19 05:33:24;;;;;;;15.02;3.00;;;;;;;;;;5039690;27;89619;-75
2022/06/19 05:35:50;;;;;;;12.50;2.40;;;;;;;;;;5055356;27;89700;-75
2022/06/19 05:38:17;;;;;;;18.33;3.70;;;;;;;;;;5045651;27;88585;-75
2022/06/19 05:40:43;;;;;;;21.92;2.90;;;;;;;;;;5038181;27;89204;-75
2022/06/19 05:43:10;;;;;;;12.90;2.42;;;;;;;;;;5043031;27;88491;-75
2022/06/19 05:45:36;;;;;;;10.65;2.97;;;;;;;;;;5035105;27;88713;-75
2022/06/19 05:48:02;;;;;;;13.30;3.33;;;;;;;;;;5035807;27;90691;-75
2022/06/19 05:50:30;;;;;;;19.23;2.85;;;;;;;;;;5035335;27;88816;-75
2022/06/19 05:52:57;;;;;;;15.98;3.13;;;;;;;;;;5042621;27;89650;-75
2022/06/19 05:55:23;;;;;;;16.83;3.00;;;;;;;;;;5045000;27;89096;-75
2022/06/19 05:57:49;;;;;;;18.75;2.95;;;;;;;;;;5035295;27;88899;-75
2022/06/19 06:00:17;;;;;;;16.33;2.70;;;;;;;;;;5037245;27;89749;-75
2022/06/19 06:02:44;;;;;;;7.75;2.03;;;;;;;;;;5052480;27;88937;-75
2022/06/19 06:05:10;;;;;;;9.90;2.30;;;;;;;;;;5043551;27;88570;-75
2022/06/19 06:07:37;;;;;;;9.35;2.53;;;;;;;;;;5042387;27;89073;-75
2022/06/19 06:10:03;;;;;;;12.35;3.17;;;;;;;;;;5035458;27;90461;-75
2022/06/19 06:12:31;;;;;;;15.30;2.72;;;;;;;;;;5042358;27;89030;-74
2022/06/19 06:14:57;;;;;;;15.38;2.80;;;;;;;;;;5035904;27;89682;-75
2022/06/19 06:17:24;;;;;;;9.55;3.28;;;;;;;;;;5035233;27;89357;-74
2022/06/19 06:19:50;;;;;;;16.60;3.42;;;;;;;;;;5039798;27;89416;-74
2022/06/19 06:22:16;;;;;;;21.50;3.10;;;;;;;;;;5038402;27;89771;-74
2022/06/19 06:24:43;;;;;;;10.38;2.25;;;;;;;;;;5050934;27;88471;-75
2022/06/19 06:27:09;;;;;;;12.63;2.85;;;;;;;;;;5048187;27;89925;-75
2022/06/19 06:29:36;;;;;;;12.63;3.38;;;;;;;;;;5043782;27;88127;-75
2022/06/19 06:32:02;;;;;;;13.70;2.83;;;;;;;;;;5036084;27;89168;-76
2022/06/19 06:34:29;;;;;;;21.77;3.25;;;;;;;;;;5047006;27;89742;-76
2022/06/19 06:36:55;;;;;;;17.45;4.57;;;;;;;;;;5054669;27;89568;-76
2022/06/19 06:39:21;;;;;;;18.35;3.78;;;;;;;;;;5042509;27;90468;-76
2022/06/19 06:41:48;;;;;;;16.33;3.00;;;;;;;;;;5035360;27;88696;-76
2022/06/19 06:44:14;;;;;;;11.43;2.70;;;;;;;;;;5038751;27;88466;-75
2022/06/19 06:46:41;;;;;;;24.23;3.83;;;;;;;;;;5034057;27;88790;-77
2022/06/19 06:49:07;;;;;;;15.30;3.92;;;;;;;;;;5039541;27;88826;-77
2022/06/19 06:51:34;;;;;;;15.10;3.28;;;;;;;;;;5038897;27;89622;-76
2022/06/19 06:54:00;;;;;;;18.40;3.45;;;;;;;;;;5037757;27;87247;-76
2022/06/19 06:56:31;;;;;;;26.70;4.15;;;;;;;;;;5037861;27;88107;-76
2022/06/19 06:58:58;;;;;;;17.67;3.55;;;;;;;;;;5045964;27;88724;-76
2022/06/19 07:01:29;;;;;;;14.23;2.92;;;;;;;;;;5036680;27;90011;-76
2022/06/19 07:03:55;;;;;;;12.55;2.92;;;;;;;;;;5040941;27;88848;-75
2022/06/19 07:06:24;;;;;;;10.38;2.95;;;;;;;;;;5053121;27;88698;-77
2022/06/19 07:08:50;;;;;;;12.02;3.17;;;;;;;;;;5037822;27;88982;-75
2022/06/19 07:11:24;;;;;;;17.23;3.45;;;;;;;;;;5039063;27;89447;-77
2022/06/19 07:13:51;;;;;;;14.98;3.30;;;;;;;;;;5037832;27;89725;-76
2022/06/19 07:16:17;;;;;;;12.07;2.83;;;;;;;;;;5046228;27;88840;-76
2022/06/19 07:18:44;;;;;;;11.35;2.78;;;;;;;;;;5038643;27;89967;-76
2022/06/19 07:21:11;;;;;;;12.52;2.70;;;;;;;;;;5037463;27;89179;-76
2022/06/19 07:23:38;;;;;;;16.40;2.80;;;;;;;;;;5043153;27;88150;-77
2022/06/19 07:26:07;;;;;;;12.48;3.42;;;;;;;;;;5056697;27;89601;-77
2022/06/19 07:28:34;;;;;;;12.90;2.38;;;;;;;;;;5051545;27;89946;-77
2022/06/19 07:31:00;;;;;;;13.63;3.45;;;;;;;;;;5050620;27;89715;-78
2022/06/19 07:33:27;;;;;;;8.25;2.50;;;;;;;;;;5057210;27;88898;-78
2022/06/19 07:35:53;;;;;;;10.65;2.78;;;;;;;;;;5038977;27;88548;-77
2022/06/19 07:38:19;;;;;;;12.60;2.60;;;;;;;;;;5045714;27;88689;-75
2022/06/19 07:40:46;;;;;;;8.93;2.42;;;;;;;;;;5038773;27;88633;-76
2022/06/19 07:43:14;;;;;;;13.27;2.83;;;;;;;;;;5043888;27;88797;-75
2022/06/19 07:45:41;;;;;;;7.25;2.20;;;;;;;;;;5037841;27;89042;-76
2022/06/19 07:50:54;;;;;;;7.20;2.40;;;;;;;;;;5039034;27;88802;-77
2022/06/19 07:53:20;;;;;;;9.57;2.72;;;;;;;;;;5037253;27;89054;-76
2022/06/19 07:55:47;;;;;;;7.90;2.17;;;;;;;;;;5045550;27;89343;-76
2022/06/19 07:58:13;;;;;;;13.93;2.72;;;;;;;;;;5036961;27;88761;-76
2022/06/19 08:00:40;;;;;;;6.78;2.42;;;;;;;;;;5037846;27;89660;-76
2022/06/19 08:03:06;;;;;;;8.80;1.90;;;;;;;;;;5037239;27;89023;-77
2022/06/19 08:05:34;;;;;;;5.32;2.30;;;;;;;;;;5036556;27;88696;-76
2022/06/19 08:08:01;;;;;;;11.82;2.75;;;;;;;;;;5038242;27;89159;-76
2022/06/19 08:10:32;;;;;;;12.57;2.65;;;;;;;;;;5035519;27;88270;-76
2022/06/19 08:12:59;;;;;;;10.18;2.70;;;;;;;;;;5049488;27;88762;-76
2022/06/19 08:15:26;;;;;;;10.05;2.10;;;;;;;;;;5043351;27;88791;-76
2022/06/19 08:17:52;;;;;;;6.60;2.17;;;;;;;;;;5036458;27;89483;-76
2022/06/19 08:20:19;;;;;;;9.18;2.40;;;;;;;;;;5049333;27;89742;-76
2022/06/19 08:22:46;;;;;;;12.50;2.95;;;;;;;;;;5057231;27;88733;-75
2022/06/19 08:25:14;;;;;;;7.03;3.03;;;;;;;;;;5036924;27;90090;-76
2022/06/19 08:27:42;;;;;;;8.77;2.85;;;;;;;;;;5037065;27;89485;-75
2022/06/19 08:30:13;;;;;;;10.50;2.90;;;;;;;;;;5037130;27;89055;-75
2022/06/19 08:32:39;;;;;;;9.73;2.40;;;;;;;;;;5045771;27;89034;-76
2022/06/19 08:35:06;;;;;;;8.00;2.30;;;;;;;;;;5038814;27;88792;-76
2022/06/19 08:37:33;;;;;;;6.07;1.75;;;;;;;;;;5037411;27;89585;-76
2022/06/19 08:40:00;;;;;;;12.77;2.20;;;;;;;;;;5044964;27;90456;-76
2022/06/19 08:42:38;;;;;;;10.75;2.40;;;;;;;;;;5057261;27;88255;-75
2022/06/19 08:45:14;;;;;;;7.70;2.30;;;;;;;;;;5047102;27;89450;-76
2022/06/19 08:48:04;;;;;;;6.90;2.60;;;;;;;;;;5051957;27;89664;-75
2022/06/19 08:50:37;;;;;;;9.30;2.33;;;;;;;;;;5048593;27;88717;-76
2022/06/19 08:53:18;;;;;;;12.40;2.65;;;;;;;;;;5046563;27;89234;-76
2022/06/19 08:56:05;;;;;;;13.88;2.72;;;;;;;;;;5043114;27;90033;-73
2022/06/19 08:58:57;;;;;;;11.77;2.83;;;;;;;;;;5045016;27;89577;-74
2022/06/19 09:01:30;;;;;;;16.88;3.92;;;;;;;;;;5054065;27;89874;-73
2022/06/19 09:07:11;;;;;;;14.73;2.65;;;;;;;;;;5034205;27;88743;-73
2022/06/19 09:09:56;;;;;;;11.70;2.72;;;;;;;;;;5037264;27;89806;-74
2022/06/19 09:12:42;;;;;;;9.88;2.75;;;;;;;;;;5044789;27;89712;-73
2022/06/19 09:15:14;;;;;;;9.38;2.90;;;;;;;;;;5037209;27;88328;-74
2022/06/19 09:17:56;;;;;;;12.02;2.78;;;;;;;;;;5039927;27;88915;-73
2022/06/19 09:20:25;;;;;;;;;;;;;;;;;;5019567;27;88107;-73
2022/06/19 09:23:06;;;;;;;11.75;2.58;;;;;;;;;;5049956;27;90075;-72
2022/06/19 09:25:34;;;;;;;11.40;3.10;;;;;;;;;;5038763;27;87412;-74
2022/06/19 09:28:13;;;;;;;13.07;3.30;;;;;;;;;;5045884;27;89569;-73
2022/06/19 09:30:46;;;;;;;9.30;2.92;;;;;;;;;;5037321;27;90157;-73
2022/06/19 09:33:23;;;;;;;13.10;3.75;;;;;;;;;;5044372;27;88855;-73
2022/06/19 09:35:59;;;;;;;8.38;2.67;;;;;;;;;;5034807;27;90335;-73
2022/06/19 09:38:30;;;;;;;12.40;3.03;;;;;;;;;;5035608;27;88152;-73
2022/06/19 09:40:59;;;;;;;11.82;2.83;;;;;;;;;;5033885;27;88147;-73
2022/06/19 09:43:29;;;;;;;16.73;4.40;;;;;;;;;;5038522;27;88738;-74
2022/06/19 09:45:55;;;;;;;10.73;3.50;;;;;;;;;;5034784;27;89059;-72
2022/06/19 09:48:21;;;;;;;13.75;2.92;;;;;;;;;;5038886;27;89602;-73
2022/06/19 09:51:06;;;;;;;14.00;3.25;;;;;;;;;;5044043;27;89716;-73
2022/06/19 09:53:36;;;;;;;10.63;2.95;;;;;;;;;;5037193;27;89455;-73
2022/06/19 09:56:26;;;;;;;8.20;2.22;;;;;;;;;;5037940;27;89464;-72
2022/06/19 09:58:57;;;;;;;10.93;2.80;;;;;;;;;;5034842;27;89900;-72
2022/06/19 10:01:24;;;;;;;14.40;2.83;;;;;;;;;;5037205;27;88763;-73
2022/06/19 10:03:57;;;;;;;10.73;2.58;;;;;;;;;;5033762;27;88727;-73
2022/06/19 10:06:36;;;;;;;11.82;2.60;;;;;;;;;;5037179;27;88468;-73
2022/06/19 10:09:22;;;;;;;11.73;2.88;;;;;;;;;;5035737;27;89676;-73
2022/06/19 10:11:52;;;;;;;12.93;3.05;;;;;;;;;;5040589;27;89866;-72
2022/06/19 10:14:31;;;;;;;9.93;2.70;;;;;;;;;;5035218;27;90164;-73
2022/06/19 10:17:09;;;;;;;7.82;2.67;;;;;;;;;;5036511;27;88871;-72
2022/06/19 10:19:54;;;;;;;13.63;2.60;;;;;;;;;;5049350;27;89023;-72
2022/06/19 10:22:23;;;;;;;9.70;2.75;;;;;;;;;;5035939;27;88719;-72
2022/06/19 10:25:01;;;;;;;13.38;3.15;;;;;;;;;;5039648;27;89368;-72
2022/06/19 10:27:46;;;;;;;11.02;2.20;;;;;;;;;;5038214;27;91772;-72
2022/06/19 10:30:15;;;;;;;8.15;2.15;;;;;;;;;;5039461;27;88137;-72
2022/06/19 10:32:55;;;;;;;11.68;2.50;;;;;;;;;;5037609;27;88994;-71
2022/06/19 10:35:35;;;;;;;6.63;2.10;;;;;;;;;;5046473;27;89508;-72
2022/06/19 10:38:02;;;;;;;11.27;2.75;;;;;;;;;;5038665;27;88110;-72
2022/06/19 10:40:39;;;;;;;11.23;2.53;;;;;;;;;;5051178;27;89658;-72
2022/06/19 10:43:23;;;;;;;11.77;2.50;;;;;;;;;;5047442;27;87883;-72
2022/06/19 10:45:51;;;;;;;10.48;2.95;;;;;;;;;;5047248;27;88898;-72
2022/06/19 10:48:24;;;;;;;8.40;2.10;;;;;;;;;;5038764;27;89747;-72
2022/06/19 10:51:05;;;;;;;7.88;2.28;;;;;;;;;;5045976;27;88906;-72
2022/06/19 10:53:50;;;;;;;8.25;2.17;;;;;;;;;;5052424;27;88104;-72
2022/06/19 10:56:29;;;;;;;8.13;2.67;;;;;;;;;;5038697;27;89049;-72
2022/06/19 10:58:55;;;;;;;5.43;2.17;;;;;;;;;;5039100;27;88881;-72
2022/06/19 11:04:14;;;;;;;6.32;2.05;;;;;;;;;;5037597;27;88931;-72
2022/06/19 11:07:02;;;;;;;8.05;2.08;;;;;;;;;;5037734;27;90203;-72
2022/06/19 11:09:36;;;;;;;5.38;2.00;;;;;;;;;;5042788;27;87954;-72
2022/06/19 11:12:37;;;;;;;7.47;1.80;;;;;;;;;;5044463;27;91721;-71
2022/06/19 11:15:05;;;;;;;6.68;1.77;;;;;;;;;;4996499;27;89459;-72
2022/06/19 11:17:34;;;;;;;8.77;1.83;;;;;;;;;;5038768;27;90081;-72
2022/06/19 11:20:20;;;;;;;6.35;1.92;;;;;;;;;;5041735;27;91571;-72
2022/06/19 11:22:48;;;;;;;4.20;1.70;;;;;;;;;;5038898;27;90813;-73
2022/06/19 11:25:20;;;;;;;3.78;1.75;;;;;;;;;;5039559;27;88749;-72
2022/06/19 11:28:05;;;;;;;5.05;2.20;;;;;;;;;;5040049;27;88770;-72
2022/06/19 11:30:51;;;;;;;5.75;2.15;;;;;;;;;;5037644;27;89266;-72
2022/06/19 11:33:20;;;;;;;6.50;1.73;;;;;;;;;;5038232;27;88793;-71
2022/06/19 11:35:53;;;;;;;5.30;2.45;;;;;;;;;;5046011;27;89088;-71
2022/06/19 11:38:32;;;;;;;8.25;2.65;;;;;;;;;;5040839;27;89787;-72
2022/06/19 11:40:59;;;;;;;5.10;2.00;;;;;;;;;;5039370;27;89681;-72
2022/06/19 11:43:30;;;;;;;2.90;1.52;;;;;;;;;;5043087;27;90522;-72
2022/06/19 11:46:03;;;;;;;5.05;2.05;;;;;;;;;;5043687;27;89200;-71
2022/06/19 11:48:30;;;;;;;5.88;2.35;;;;;;;;;;5036322;27;88901;-72
2022/06/19 11:50:57;;;;;;;5.90;1.95;;;;;;;;;;5047979;27;89002;-72
2022/06/19 11:53:32;;;;;;;5.60;2.00;;;;;;;;;;5036507;27;88385;-72
2022/06/19 11:56:17;;;;;;;6.15;2.13;;;;;;;;;;5037998;27;88811;-71
2022/06/19 11:58:50;;;;;;;4.75;1.95;;;;;;;;;;5042488;27;89174;-72
2022/06/19 12:01:17;;;;;;;6.97;2.47;;;;;;;;;;5050286;27;88935;-72
2022/06/19 12:03:50;;;;;;;4.32;2.10;;;;;;;;;;5044443;27;88845;-72
2022/06/19 12:06:18;;;;;;;4.63;1.92;;;;;;;;;;5054151;27;89706;-72
2022/06/19 12:08:53;;;;;;;5.70;2.20;;;;;;;;;;5036280;27;90424;-72
2022/06/19 12:11:33;;;;;;;9.32;2.20;;;;;;;;;;5048471;27;88079;-72
2022/06/19 12:14:00;;;;;;;6.72;2.30;;;;;;;;;;5041222;27;89273;-73
2022/06/19 12:16:26;;;;;;;4.97;2.03;;;;;;;;;;5040855;27;91211;-71
2022/06/19 12:18:53;;;;;;;8.93;2.38;;;;;;;;;;5038390;27;89143;-71
2022/06/19 12:21:19;;;;;;;6.75;1.80;;;;;;;;;;5038082;27;88553;-72
2022/06/19 12:24:04;;;;;;;6.40;1.63;;;;;;;;;;5050676;27;89026;-73
2022/06/19 12:26:35;;;;;;;5.68;1.65;;;;;;;;;;5047254;27;88840;-71
2022/06/19 12:29:20;;;;;;;3.28;1.92;;;;;;;;;;5041423;27;89463;-71
2022/06/19 12:31:46;;;;;;;7.45;1.90;;;;;;;;;;5039473;27;89284;-71
2022/06/19 12:34:31;;;;;;;3.28;1.55;;;;;;;;;;5036007;27;88816;-72
2022/06/19 12:36:58;;;;;;;5.28;1.30;;;;;;;;;;5039011;27;89332;-72
2022/06/19 12:39:32;;;;;;;2.50;1.25;;;;;;;;;;5033700;27;89050;-72
2022/06/19 12:41:58;;;;;;;10.77;2.05;;;;;;;;;;5036497;27;88040;-72
2022/06/19 12:44:34;;;;;;;5.05;1.52;;;;;;;;;;5042995;27;89488;-71
2022/06/19 12:47:12;;;;;;;3.67;1.55;;;;;;;;;;5040451;27;89838;-71
2022/06/19 12:49:48;;;;;;;3.03;1.25;;;;;;;;;;5036735;27;89721;-71
2022/06/19 12:52:14;;;;;;;3.80;1.35;;;;;;;;;;5035478;27;88936;-71
2022/06/19 12:54:59;;;;;;;5.43;1.42;;;;;;;;;;5039144;27;88259;-71
2022/06/19 12:57:34;;;;;;;3.20;1.27;;;;;;;;;;5055866;27;89786;-71
2022/06/19 13:00:15;;;;;;;3.95;1.48;;;;;;;;;;5047313;27;90493;-71
2022/06/19 13:02:59;;;;;;;1.88;1.30;;;;;;;;;;5053380;27;88775;-71
2022/06/19 13:05:41;;;;;;;3.95;1.38;;;;;;;;;;5045011;27;89426;-72
2022/06/19 13:08:14;;;;;;;5.38;1.70;;;;;;;;;;5039840;27;89406;-72
2022/06/19 13:10:47;;;;;;;3.20;1.52;;;;;;;;;;5036404;27;88458;-71
2022/06/19 13:13:36;;;;;;;5.07;1.45;;;;;;;;;;5042162;27;89632;-71
2022/06/19 13:16:08;;;;;;;5.43;2.28;;;;;;;;;;5036894;27;89053;-71
2022/06/19 13:18:44;;;;;;;3.20;1.00;;;;;;;;;;5043442;27;88205;-71
2022/06/19 13:21:24;;;;;;;1.83;1.25;;;;;;;;;;5043725;27;89186;-72
2022/06/19 13:23:51;;;;;;;2.05;1.20;;;;;;;;;;5035804;27;88870;-72
2022/06/19 13:29:31;;;;;;;3.05;1.50;;;;;;;;;;5043192;27;89937;-71
2022/06/19 13:32:26;;;;;;;3.45;1.33;;;;;;;;;;5008931;27;88828;-72
2022/06/19 13:34:52;;;;;;;;;;;;;;;;;;5010034;27;89966;-71
2022/06/19 13:37:38;;;;;;;6.00;1.60;;;;;;;;;;5036532;27;118352;-72
2022/06/19 13:40:05;;;;;;;5.22;1.23;;;;;;;;;;5036801;27;89152;-72
2022/06/19 13:42:42;;;;;;;4.53;1.45;;;;;;;;;;5035817;27;89932;-72
2022/06/19 13:45:09;;;;;;;2.47;1.60;;;;;;;;;;5036941;27;88754;-72
2022/06/19 13:47:38;;;;;;;3.38;1.48;;;;;;;;;;5034814;27;88188;-72
2022/06/19 13:50:11;;;;;;;5.45;2.15;;;;;;;;;;5036400;27;88969;-71
2022/06/19 13:52:41;;;;;;;6.47;1.38;;;;;;;;;;5035378;27;88857;-71
2022/06/19 13:55:07;;;;;;;3.55;1.35;;;;;;;;;;5040671;27;90265;-71
2022/06/19 13:57:39;;;;;;;1.92;1.15;;;;;;;;;;5038448;27;88925;-72
2022/06/19 14:00:15;;;;;;;3.85;1.85;;;;;;;;;;5046153;27;89668;-72
2022/06/19 14:02:49;;;;;;;5.32;1.63;;;;;;;;;;5037713;27;89142;-72
2022/06/19 14:05:24;;;;;;;3.65;1.40;;;;;;;;;;5046595;27;88673;-71
2022/06/19 14:08:01;;;;;;;3.17;1.70;;;;;;;;;;5039464;27;89548;-72
2022/06/19 14:10:36;;;;;;;8.40;1.88;;;;;;;;;;5039157;27;89020;-72
2022/06/19 14:13:06;;;;;;;6.80;2.08;;;;;;;;;;5039696;27;88759;-73
2022/06/19 14:15:32;;;;;;;6.50;1.88;;;;;;;;;;5054148;27;88921;-73
2022/06/19 14:18:03;;;;;;;4.80;1.92;;;;;;;;;;5041703;27;89509;-73
2022/06/19 14:20:36;;;;;;;4.47;1.67;;;;;;;;;;5046327;27;90458;-73
2022/06/19 14:23:02;;;;;;;;;;;;;;;;;;5056187;27;89713;-72
2022/06/19 14:25:43;;;;;;;6.80;1.80;;;;;;;;;;5038911;27;118745;-73
2022/06/19 14:28:22;;;;;;;5.80;2.15;;;;;;;;;;5038828;27;88796;-73
2022/06/19 14:30:51;;;;;;;6.38;2.03;;;;;;;;;;5038140;27;89892;-72
2022/06/19 14:33:33;;;;;;;3.42;1.50;;;;;;;;;;5038399;27;88042;-72
2022/06/19 14:36:11;;;;;;;6.85;2.40;;;;;;;;;;5047931;27;89230;-73
2022/06/19 14:38:38;;;;;;;4.82;1.92;;;;;;;;;;5042889;27;89995;-73
2022/06/19 14:41:12;;;;;;;8.88;2.03;;;;;;;;;;5041549;27;88892;-72
2022/06/19 14:43:52;;;;;;;9.68;2.40;;;;;;;;;;5046060;27;89477;-72
2022/06/19 14:46:25;;;;;;;14.35;2.22;;;;;;;;;;5038947;27;88701;-73
2022/06/19 14:48:57;;;;;;;8.43;2.17;;;;;;;;;;5038102;27;88570;-73
2022/06/19 14:51:24;;;;;;;;;;;;;;;;;;5038685;27;89482;-74
2022/06/19 14:54:02;;;;;;;8.85;2.15;;;;;;;;;;5038801;27;118408;-73
2022/06/19 14:56:47;;;;;;;9.13;2.90;;;;;;;;;;5039070;27;89593;-74
2022/06/19 14:59:18;;;;;;;4.60;2.10;;;;;;;;;;5037637;27;89657;-77
2022/06/19 15:01:48;;;;;;;11.25;2.90;;;;;;;;;;5038548;27;87325;-73
2022/06/19 15:04:17;;;;;;;7.97;2.25;;;;;;;;;;5041894;27;89343;-74
2022/06/19 15:06:58;;;;;;;9.88;2.20;;;;;;;;;;5037659;27;88530;-73
2022/06/19 15:09:27;;;;;;;10.40;2.55;;;;;;;;;;5037728;27;89779;-73
2022/06/19 15:12:06;;;;;;;8.25;1.98;;;;;;;;;;5038421;27;89900;-73
2022/06/19 15:15:01;;;;;;;8.02;2.33;;;;;;;;;;5038006;27;89357;-73